sensor_id;sensor_type;location;lat;lon;timestamp;P1;durP1;ratioP1;P2;durP2;ratioP2
8849;SDS011;5638;50.860;4.698;2023-01-19T00:00:12;11.83;;;6.87;;
8849;SDS011;5638;50.860;4.698;2023-01-19T00:02:39;9.40;;;6.30;;
8849;SDS011;5638;50.860;4.698;2023-01-19T00:05:07;9.93;;;6.53;;
8849;SDS011;5638;50.860;4.698;2023-01-19T00:07:33;9.40;;;6.90;;
8849;SDS011;5638;50.860;4.698;2023-01-19T00:09:59;9.67;;;6.80;;
8849;SDS011;5638;50.860;4.698;2023-01-19T00:12:25;9.63;;;6.87;;
8849;SDS011;5638;50.860;4.698;2023-01-19T00:14:51;9.87;;;6.70;;
8849;SDS011;5638;50.860;4.698;2023-01-19T00:17:17;8.10;;;6.67;;
8849;SDS011;5638;50.860;4.698;2023-01-19T00:19:43;9.53;;;6.93;;
8849;SDS011;5638;50.860;4.698;2023-01-19T00:22:09;11.00;;;7.50;;
8849;SDS011;5638;50.860;4.698;2023-01-19T00:24:34;8.37;;;6.70;;
8849;SDS011;5638;50.860;4.698;2023-01-19T00:27:00;8.40;;;7.13;;
8849;SDS011;5638;50.860;4.698;2023-01-19T00:29:28;12.10;;;6.67;;
8849;SDS011;5638;50.860;4.698;2023-01-19T00:32:02;9.83;;;7.43;;
8849;SDS011;5638;50.860;4.698;2023-01-19T00:34:29;13.50;;;7.20;;
8849;SDS011;5638;50.860;4.698;2023-01-19T00:37:10;9.50;;;6.53;;
8849;SDS011;5638;50.860;4.698;2023-01-19T00:39:36;10.80;;;6.80;;
8849;SDS011;5638;50.860;4.698;2023-01-19T00:42:02;9.87;;;7.03;;
8849;SDS011;5638;50.860;4.698;2023-01-19T00:44:46;12.17;;;7.70;;
8849;SDS011;5638;50.860;4.698;2023-01-19T00:47:12;8.93;;;6.97;;
8849;SDS011;5638;50.860;4.698;2023-01-19T00:49:38;12.43;;;8.07;;
8849;SDS011;5638;50.860;4.698;2023-01-19T00:52:04;9.43;;;7.17;;
8849;SDS011;5638;50.860;4.698;2023-01-19T00:54:30;11.20;;;8.13;;
8849;SDS011;5638;50.860;4.698;2023-01-19T00:56:56;13.50;;;7.33;;
8849;SDS011;5638;50.860;4.698;2023-01-19T00:59:21;12.10;;;7.97;;
8849;SDS011;5638;50.860;4.698;2023-01-19T01:01:47;12.10;;;8.17;;
8849;SDS011;5638;50.860;4.698;2023-01-19T01:04:13;11.67;;;8.00;;
8849;SDS011;5638;50.860;4.698;2023-01-19T01:06:39;13.17;;;9.30;;
8849;SDS011;5638;50.860;4.698;2023-01-19T01:09:05;11.00;;;8.47;;
8849;SDS011;5638;50.860;4.698;2023-01-19T01:11:42;14.93;;;8.47;;
8849;SDS011;5638;50.860;4.698;2023-01-19T01:14:09;13.17;;;8.33;;
8849;SDS011;5638;50.860;4.698;2023-01-19T01:16:37;11.07;;;8.43;;
8849;SDS011;5638;50.860;4.698;2023-01-19T01:19:03;12.07;;;8.27;;
8849;SDS011;5638;50.860;4.698;2023-01-19T01:21:29;14.20;;;8.77;;
8849;SDS011;5638;50.860;4.698;2023-01-19T01:23:55;14.60;;;8.40;;
8849;SDS011;5638;50.860;4.698;2023-01-19T01:26:21;14.37;;;8.50;;
8849;SDS011;5638;50.860;4.698;2023-01-19T01:28:46;11.83;;;7.83;;
8849;SDS011;5638;50.860;4.698;2023-01-19T01:31:12;10.60;;;7.90;;
8849;SDS011;5638;50.860;4.698;2023-01-19T01:33:38;13.53;;;8.17;;
8849;SDS011;5638;50.860;4.698;2023-01-19T01:36:04;15.43;;;8.07;;
8849;SDS011;5638;50.860;4.698;2023-01-19T01:38:31;11.73;;;7.37;;
8849;SDS011;5638;50.860;4.698;2023-01-19T01:40:56;9.37;;;7.27;;
8849;SDS011;5638;50.860;4.698;2023-01-19T01:43:22;13.13;;;7.80;;
8849;SDS011;5638;50.860;4.698;2023-01-19T01:46:06;10.10;;;7.37;;
8849;SDS011;5638;50.860;4.698;2023-01-19T01:48:32;13.57;;;7.77;;
8849;SDS011;5638;50.860;4.698;2023-01-19T01:51:12;11.03;;;8.27;;
8849;SDS011;5638;50.860;4.698;2023-01-19T01:53:51;11.60;;;7.60;;
8849;SDS011;5638;50.860;4.698;2023-01-19T01:56:20;13.30;;;8.03;;
8849;SDS011;5638;50.860;4.698;2023-01-19T01:58:52;13.67;;;8.30;;
8849;SDS011;5638;50.860;4.698;2023-01-19T02:01:18;13.13;;;8.30;;
8849;SDS011;5638;50.860;4.698;2023-01-19T02:04:03;10.80;;;7.73;;
8849;SDS011;5638;50.860;4.698;2023-01-19T02:06:29;14.97;;;8.40;;
8849;SDS011;5638;50.860;4.698;2023-01-19T02:08:59;9.50;;;7.00;;
8849;SDS011;5638;50.860;4.698;2023-01-19T02:11:50;11.50;;;7.60;;
8849;SDS011;5638;50.860;4.698;2023-01-19T02:14:36;9.97;;;7.60;;
8849;SDS011;5638;50.860;4.698;2023-01-19T02:17:02;14.07;;;7.33;;
8849;SDS011;5638;50.860;4.698;2023-01-19T02:19:37;10.87;;;7.70;;
8849;SDS011;5638;50.860;4.698;2023-01-19T02:22:12;14.80;;;6.90;;
8849;SDS011;5638;50.860;4.698;2023-01-19T02:24:48;11.43;;;7.50;;
8849;SDS011;5638;50.860;4.698;2023-01-19T02:27:14;12.60;;;7.50;;
8849;SDS011;5638;50.860;4.698;2023-01-19T02:29:41;11.83;;;7.30;;
8849;SDS011;5638;50.860;4.698;2023-01-19T02:32:07;11.43;;;7.27;;
8849;SDS011;5638;50.860;4.698;2023-01-19T02:34:33;13.13;;;7.30;;
8849;SDS011;5638;50.860;4.698;2023-01-19T02:37:00;11.50;;;7.03;;
8849;SDS011;5638;50.860;4.698;2023-01-19T02:39:41;10.07;;;6.67;;
8849;SDS011;5638;50.860;4.698;2023-01-19T02:42:12;11.67;;;7.33;;
8849;SDS011;5638;50.860;4.698;2023-01-19T02:44:46;10.43;;;7.00;;
8849;SDS011;5638;50.860;4.698;2023-01-19T02:47:16;13.07;;;6.57;;
8849;SDS011;5638;50.860;4.698;2023-01-19T02:49:43;10.07;;;7.00;;
8849;SDS011;5638;50.860;4.698;2023-01-19T02:52:18;12.60;;;8.07;;
8849;SDS011;5638;50.860;4.698;2023-01-19T02:54:50;9.23;;;7.07;;
8849;SDS011;5638;50.860;4.698;2023-01-19T03:03:06;11.27;;;7.43;;
8849;SDS011;5638;50.860;4.698;2023-01-19T03:08:52;15.53;;;7.80;;
8849;SDS011;5638;50.860;4.698;2023-01-19T03:11:29;13.73;;;7.57;;
8849;SDS011;5638;50.860;4.698;2023-01-19T03:14:06;11.03;;;7.57;;
8849;SDS011;5638;50.860;4.698;2023-01-19T03:16:43;13.00;;;7.20;;
8849;SDS011;5638;50.860;4.698;2023-01-19T03:22:16;11.40;;;6.93;;
8849;SDS011;5638;50.860;4.698;2023-01-19T03:24:51;11.80;;;7.57;;
8849;SDS011;5638;50.860;4.698;2023-01-19T03:27:31;9.50;;;6.40;;
8849;SDS011;5638;50.860;4.698;2023-01-19T03:30:06;12.00;;;6.90;;
8849;SDS011;5638;50.860;4.698;2023-01-19T03:32:41;12.50;;;7.10;;
8849;SDS011;5638;50.860;4.698;2023-01-19T03:35:17;10.33;;;6.10;;
8849;SDS011;5638;50.860;4.698;2023-01-19T03:37:49;12.00;;;6.43;;
8849;SDS011;5638;50.860;4.698;2023-01-19T03:40:20;10.50;;;6.33;;
8849;SDS011;5638;50.860;4.698;2023-01-19T03:42:50;11.23;;;6.43;;
8849;SDS011;5638;50.860;4.698;2023-01-19T03:45:17;9.03;;;6.33;;
8849;SDS011;5638;50.860;4.698;2023-01-19T03:47:45;9.60;;;6.47;;
8849;SDS011;5638;50.860;4.698;2023-01-19T03:50:12;12.70;;;6.90;;
8849;SDS011;5638;50.860;4.698;2023-01-19T03:52:59;10.83;;;6.50;;
8849;SDS011;5638;50.860;4.698;2023-01-19T03:55:41;9.57;;;6.70;;
8849;SDS011;5638;50.860;4.698;2023-01-19T03:58:11;9.73;;;6.80;;
8849;SDS011;5638;50.860;4.698;2023-01-19T04:00:37;12.70;;;7.00;;
8849;SDS011;5638;50.860;4.698;2023-01-19T04:03:04;12.17;;;7.20;;
8849;SDS011;5638;50.860;4.698;2023-01-19T04:05:36;11.17;;;7.27;;
8849;SDS011;5638;50.860;4.698;2023-01-19T04:08:03;7.93;;;5.83;;
8849;SDS011;5638;50.860;4.698;2023-01-19T04:10:30;9.53;;;6.13;;
8849;SDS011;5638;50.860;4.698;2023-01-19T04:12:59;9.13;;;6.33;;
8849;SDS011;5638;50.860;4.698;2023-01-19T04:15:27;11.63;;;6.30;;
8849;SDS011;5638;50.860;4.698;2023-01-19T04:17:55;7.40;;;5.27;;
8849;SDS011;5638;50.860;4.698;2023-01-19T04:20:23;12.63;;;6.50;;
8849;SDS011;5638;50.860;4.698;2023-01-19T04:22:51;9.63;;;6.47;;
8849;SDS011;5638;50.860;4.698;2023-01-19T04:25:16;10.00;;;6.23;;
8849;SDS011;5638;50.860;4.698;2023-01-19T04:27:42;9.47;;;6.23;;
8849;SDS011;5638;50.860;4.698;2023-01-19T04:30:08;13.67;;;6.83;;
8849;SDS011;5638;50.860;4.698;2023-01-19T04:32:35;9.87;;;6.13;;
8849;SDS011;5638;50.860;4.698;2023-01-19T04:35:01;8.70;;;5.93;;
8849;SDS011;5638;50.860;4.698;2023-01-19T04:37:26;8.37;;;6.27;;
8849;SDS011;5638;50.860;4.698;2023-01-19T04:39:52;13.23;;;6.83;;
8849;SDS011;5638;50.860;4.698;2023-01-19T04:42:19;12.83;;;6.77;;
8849;SDS011;5638;50.860;4.698;2023-01-19T04:44:45;10.43;;;6.53;;
8849;SDS011;5638;50.860;4.698;2023-01-19T04:47:11;9.97;;;6.67;;
8849;SDS011;5638;50.860;4.698;2023-01-19T04:49:37;9.63;;;6.40;;
8849;SDS011;5638;50.860;4.698;2023-01-19T04:52:03;10.53;;;6.70;;
8849;SDS011;5638;50.860;4.698;2023-01-19T04:54:30;10.87;;;6.87;;
8849;SDS011;5638;50.860;4.698;2023-01-19T04:56:56;11.90;;;7.17;;
8849;SDS011;5638;50.860;4.698;2023-01-19T04:59:22;10.60;;;6.80;;
8849;SDS011;5638;50.860;4.698;2023-01-19T05:01:48;13.07;;;8.13;;
8849;SDS011;5638;50.860;4.698;2023-01-19T05:04:14;12.37;;;6.73;;
8849;SDS011;5638;50.860;4.698;2023-01-19T05:06:40;10.13;;;6.87;;
8849;SDS011;5638;50.860;4.698;2023-01-19T05:09:06;12.07;;;8.13;;
8849;SDS011;5638;50.860;4.698;2023-01-19T05:11:33;13.40;;;7.27;;
8849;SDS011;5638;50.860;4.698;2023-01-19T05:14:00;12.37;;;7.10;;
8849;SDS011;5638;50.860;4.698;2023-01-19T05:16:25;12.43;;;6.60;;
8849;SDS011;5638;50.860;4.698;2023-01-19T05:18:51;12.23;;;7.67;;
8849;SDS011;5638;50.860;4.698;2023-01-19T05:21:17;13.07;;;7.27;;
8849;SDS011;5638;50.860;4.698;2023-01-19T05:23:44;11.63;;;7.70;;
8849;SDS011;5638;50.860;4.698;2023-01-19T05:26:10;11.47;;;7.70;;
8849;SDS011;5638;50.860;4.698;2023-01-19T05:28:36;13.00;;;7.80;;
8849;SDS011;5638;50.860;4.698;2023-01-19T05:31:02;11.13;;;7.80;;
8849;SDS011;5638;50.860;4.698;2023-01-19T05:33:28;14.47;;;8.00;;
8849;SDS011;5638;50.860;4.698;2023-01-19T05:35:54;10.73;;;7.53;;
8849;SDS011;5638;50.860;4.698;2023-01-19T05:38:21;11.67;;;8.13;;
8849;SDS011;5638;50.860;4.698;2023-01-19T05:40:47;13.37;;;8.07;;
8849;SDS011;5638;50.860;4.698;2023-01-19T05:43:14;14.37;;;8.80;;
8849;SDS011;5638;50.860;4.698;2023-01-19T05:45:40;16.73;;;9.33;;
8849;SDS011;5638;50.860;4.698;2023-01-19T05:48:06;14.97;;;8.80;;
8849;SDS011;5638;50.860;4.698;2023-01-19T05:50:34;15.20;;;8.67;;
8849;SDS011;5638;50.860;4.698;2023-01-19T05:53:00;16.00;;;8.37;;
8849;SDS011;5638;50.860;4.698;2023-01-19T05:55:26;14.30;;;8.40;;
8849;SDS011;5638;50.860;4.698;2023-01-19T05:57:53;12.50;;;8.40;;
8849;SDS011;5638;50.860;4.698;2023-01-19T06:00:19;13.83;;;9.20;;
8849;SDS011;5638;50.860;4.698;2023-01-19T06:02:45;16.47;;;8.37;;
8849;SDS011;5638;50.860;4.698;2023-01-19T06:05:13;12.73;;;8.70;;
8849;SDS011;5638;50.860;4.698;2023-01-19T06:07:40;16.27;;;9.13;;
8849;SDS011;5638;50.860;4.698;2023-01-19T06:10:06;14.63;;;8.40;;
8849;SDS011;5638;50.860;4.698;2023-01-19T06:12:33;17.50;;;9.17;;
8849;SDS011;5638;50.860;4.698;2023-01-19T06:14:59;14.00;;;8.70;;
8849;SDS011;5638;50.860;4.698;2023-01-19T06:17:25;13.20;;;8.47;;
8849;SDS011;5638;50.860;4.698;2023-01-19T06:19:51;14.73;;;9.27;;
8849;SDS011;5638;50.860;4.698;2023-01-19T06:22:17;13.33;;;8.83;;
8849;SDS011;5638;50.860;4.698;2023-01-19T06:24:43;14.07;;;8.00;;
8849;SDS011;5638;50.860;4.698;2023-01-19T06:27:08;15.13;;;8.40;;
8849;SDS011;5638;50.860;4.698;2023-01-19T06:29:35;14.67;;;7.93;;
8849;SDS011;5638;50.860;4.698;2023-01-19T06:32:01;17.40;;;9.17;;
8849;SDS011;5638;50.860;4.698;2023-01-19T06:34:27;14.43;;;8.93;;
8849;SDS011;5638;50.860;4.698;2023-01-19T06:36:54;14.83;;;8.70;;
8849;SDS011;5638;50.860;4.698;2023-01-19T06:39:20;14.47;;;8.53;;
8849;SDS011;5638;50.860;4.698;2023-01-19T06:41:46;13.20;;;8.93;;
8849;SDS011;5638;50.860;4.698;2023-01-19T06:44:12;14.27;;;8.53;;
8849;SDS011;5638;50.860;4.698;2023-01-19T06:46:38;15.43;;;8.17;;
8849;SDS011;5638;50.860;4.698;2023-01-19T06:49:04;13.23;;;8.83;;
8849;SDS011;5638;50.860;4.698;2023-01-19T06:51:30;13.23;;;8.87;;
8849;SDS011;5638;50.860;4.698;2023-01-19T06:53:56;14.37;;;8.23;;
8849;SDS011;5638;50.860;4.698;2023-01-19T06:56:23;14.73;;;8.40;;
8849;SDS011;5638;50.860;4.698;2023-01-19T06:58:49;13.60;;;8.47;;
8849;SDS011;5638;50.860;4.698;2023-01-19T07:01:15;12.47;;;8.00;;
8849;SDS011;5638;50.860;4.698;2023-01-19T07:03:41;14.90;;;8.63;;
8849;SDS011;5638;50.860;4.698;2023-01-19T07:06:07;13.23;;;7.97;;
8849;SDS011;5638;50.860;4.698;2023-01-19T07:08:34;14.13;;;8.47;;
8849;SDS011;5638;50.860;4.698;2023-01-19T07:11:01;15.77;;;8.37;;
8849;SDS011;5638;50.860;4.698;2023-01-19T07:13:31;14.57;;;8.80;;
8849;SDS011;5638;50.860;4.698;2023-01-19T07:16:08;14.10;;;8.07;;
8849;SDS011;5638;50.860;4.698;2023-01-19T07:18:37;15.53;;;8.40;;
8849;SDS011;5638;50.860;4.698;2023-01-19T07:21:04;14.03;;;8.60;;
8849;SDS011;5638;50.860;4.698;2023-01-19T07:23:31;11.70;;;8.50;;
8849;SDS011;5638;50.860;4.698;2023-01-19T07:25:58;12.97;;;8.47;;
8849;SDS011;5638;50.860;4.698;2023-01-19T07:28:26;14.30;;;8.87;;
8849;SDS011;5638;50.860;4.698;2023-01-19T07:30:53;14.67;;;8.30;;
8849;SDS011;5638;50.860;4.698;2023-01-19T07:33:20;16.93;;;9.17;;
8849;SDS011;5638;50.860;4.698;2023-01-19T07:35:47;13.97;;;8.80;;
8849;SDS011;5638;50.860;4.698;2023-01-19T07:38:15;13.63;;;8.93;;
8849;SDS011;5638;50.860;4.698;2023-01-19T07:40:43;12.83;;;8.30;;
8849;SDS011;5638;50.860;4.698;2023-01-19T07:43:11;14.63;;;8.97;;
8849;SDS011;5638;50.860;4.698;2023-01-19T07:45:37;21.10;;;9.23;;
8849;SDS011;5638;50.860;4.698;2023-01-19T07:48:03;15.13;;;8.40;;
8849;SDS011;5638;50.860;4.698;2023-01-19T07:50:30;15.47;;;9.10;;
8849;SDS011;5638;50.860;4.698;2023-01-19T07:52:56;15.60;;;8.17;;
8849;SDS011;5638;50.860;4.698;2023-01-19T07:55:29;15.97;;;8.60;;
8849;SDS011;5638;50.860;4.698;2023-01-19T07:57:55;16.57;;;8.83;;
8849;SDS011;5638;50.860;4.698;2023-01-19T08:00:22;14.17;;;8.53;;
8849;SDS011;5638;50.860;4.698;2023-01-19T08:02:50;15.57;;;9.40;;
8849;SDS011;5638;50.860;4.698;2023-01-19T08:05:18;16.53;;;8.53;;
8849;SDS011;5638;50.860;4.698;2023-01-19T08:07:45;12.73;;;8.57;;
8849;SDS011;5638;50.860;4.698;2023-01-19T08:10:12;16.43;;;8.53;;
8849;SDS011;5638;50.860;4.698;2023-01-19T08:12:40;15.43;;;8.20;;
8849;SDS011;5638;50.860;4.698;2023-01-19T08:15:07;13.57;;;8.50;;
8849;SDS011;5638;50.860;4.698;2023-01-19T08:17:34;17.10;;;8.20;;
8849;SDS011;5638;50.860;4.698;2023-01-19T08:20:02;13.00;;;8.47;;
8849;SDS011;5638;50.860;4.698;2023-01-19T08:22:29;11.57;;;7.73;;
8849;SDS011;5638;50.860;4.698;2023-01-19T08:24:55;14.57;;;8.33;;
8849;SDS011;5638;50.860;4.698;2023-01-19T08:27:21;15.70;;;8.77;;
8849;SDS011;5638;50.860;4.698;2023-01-19T08:29:47;15.73;;;8.37;;
8849;SDS011;5638;50.860;4.698;2023-01-19T08:32:12;13.63;;;8.17;;
8849;SDS011;5638;50.860;4.698;2023-01-19T08:34:38;15.27;;;7.90;;
8849;SDS011;5638;50.860;4.698;2023-01-19T08:37:04;13.83;;;8.20;;
8849;SDS011;5638;50.860;4.698;2023-01-19T08:39:30;15.23;;;7.80;;
8849;SDS011;5638;50.860;4.698;2023-01-19T08:41:56;13.13;;;8.43;;
8849;SDS011;5638;50.860;4.698;2023-01-19T08:44:23;14.63;;;7.83;;
8849;SDS011;5638;50.860;4.698;2023-01-19T08:46:49;13.60;;;7.97;;
8849;SDS011;5638;50.860;4.698;2023-01-19T08:49:14;16.00;;;8.30;;
8849;SDS011;5638;50.860;4.698;2023-01-19T08:51:41;13.97;;;7.60;;
8849;SDS011;5638;50.860;4.698;2023-01-19T08:54:10;12.50;;;7.60;;
8849;SDS011;5638;50.860;4.698;2023-01-19T08:56:36;13.37;;;7.77;;
8849;SDS011;5638;50.860;4.698;2023-01-19T08:59:01;14.17;;;7.43;;
8849;SDS011;5638;50.860;4.698;2023-01-19T09:01:27;11.80;;;7.57;;
8849;SDS011;5638;50.860;4.698;2023-01-19T09:03:53;13.87;;;7.83;;
8849;SDS011;5638;50.860;4.698;2023-01-19T09:06:19;12.97;;;8.07;;
8849;SDS011;5638;50.860;4.698;2023-01-19T09:08:45;14.07;;;7.53;;
8849;SDS011;5638;50.860;4.698;2023-01-19T09:11:12;16.17;;;8.50;;
8849;SDS011;5638;50.860;4.698;2023-01-19T09:13:40;13.83;;;7.90;;
8849;SDS011;5638;50.860;4.698;2023-01-19T09:16:07;16.80;;;7.80;;
8849;SDS011;5638;50.860;4.698;2023-01-19T09:18:35;15.67;;;8.23;;
8849;SDS011;5638;50.860;4.698;2023-01-19T09:21:01;13.83;;;7.53;;
8849;SDS011;5638;50.860;4.698;2023-01-19T09:23:30;13.80;;;8.17;;
8849;SDS011;5638;50.860;4.698;2023-01-19T09:25:57;13.97;;;7.67;;
8849;SDS011;5638;50.860;4.698;2023-01-19T09:28:26;13.63;;;8.43;;
8849;SDS011;5638;50.860;4.698;2023-01-19T09:30:56;14.30;;;8.37;;
8849;SDS011;5638;50.860;4.698;2023-01-19T09:33:22;13.43;;;7.63;;
8849;SDS011;5638;50.860;4.698;2023-01-19T09:35:49;14.30;;;8.23;;
8849;SDS011;5638;50.860;4.698;2023-01-19T09:38:16;11.33;;;7.30;;
8849;SDS011;5638;50.860;4.698;2023-01-19T09:40:46;15.30;;;8.87;;
8849;SDS011;5638;50.860;4.698;2023-01-19T09:46:14;13.80;;;7.90;;
8849;SDS011;5638;50.860;4.698;2023-01-19T09:48:54;12.33;;;7.30;;
8849;SDS011;5638;50.860;4.698;2023-01-19T09:52:06;13.27;;;7.87;;
8849;SDS011;5638;50.860;4.698;2023-01-19T09:54:15;11.83;;;7.87;;
8849;SDS011;5638;50.860;4.698;2023-01-19T09:57:08;16.07;;;8.37;;
8849;SDS011;5638;50.860;4.698;2023-01-19T09:59:36;11.63;;;7.43;;
8849;SDS011;5638;50.860;4.698;2023-01-19T10:10:52;12.63;;;7.73;;
8849;SDS011;5638;50.860;4.698;2023-01-19T10:19:33;11.23;;;7.03;;
8849;SDS011;5638;50.860;4.698;2023-01-19T10:22:22;14.30;;;7.33;;
8849;SDS011;5638;50.860;4.698;2023-01-19T10:24:53;13.37;;;7.40;;
8849;SDS011;5638;50.860;4.698;2023-01-19T10:27:28;12.03;;;7.20;;
8849;SDS011;5638;50.860;4.698;2023-01-19T10:29:59;12.40;;;6.97;;
8849;SDS011;5638;50.860;4.698;2023-01-19T10:32:32;13.37;;;7.53;;
8849;SDS011;5638;50.860;4.698;2023-01-19T10:35:12;13.63;;;7.43;;
8849;SDS011;5638;50.860;4.698;2023-01-19T10:37:54;14.77;;;6.87;;
8849;SDS011;5638;50.860;4.698;2023-01-19T10:46:53;12.93;;;6.80;;
8849;SDS011;5638;50.860;4.698;2023-01-19T10:49:01;12.27;;;7.17;;
8849;SDS011;5638;50.860;4.698;2023-01-19T10:51:28;13.40;;;7.33;;
8849;SDS011;5638;50.860;4.698;2023-01-19T10:53:56;15.90;;;7.97;;
8849;SDS011;5638;50.860;4.698;2023-01-19T10:56:32;11.47;;;7.27;;
8849;SDS011;5638;50.860;4.698;2023-01-19T10:59:02;13.80;;;8.07;;
8849;SDS011;5638;50.860;4.698;2023-01-19T11:01:31;12.10;;;7.63;;
8849;SDS011;5638;50.860;4.698;2023-01-19T11:04:17;15.53;;;8.73;;
8849;SDS011;5638;50.860;4.698;2023-01-19T11:06:59;14.47;;;7.57;;
8849;SDS011;5638;50.860;4.698;2023-01-19T11:09:45;14.37;;;7.90;;
8849;SDS011;5638;50.860;4.698;2023-01-19T11:14:52;14.33;;;7.97;;
8849;SDS011;5638;50.860;4.698;2023-01-19T11:17:19;14.13;;;6.90;;
8849;SDS011;5638;50.860;4.698;2023-01-19T11:19:57;14.73;;;7.23;;
8849;SDS011;5638;50.860;4.698;2023-01-19T11:22:27;17.27;;;7.33;;
8849;SDS011;5638;50.860;4.698;2023-01-19T11:25:01;15.80;;;7.67;;
8849;SDS011;5638;50.860;4.698;2023-01-19T11:27:31;12.77;;;6.97;;
8849;SDS011;5638;50.860;4.698;2023-01-19T11:30:03;17.30;;;9.00;;
8849;SDS011;5638;50.860;4.698;2023-01-19T11:32:46;12.17;;;6.83;;
8849;SDS011;5638;50.860;4.698;2023-01-19T11:38:25;13.27;;;7.27;;
8849;SDS011;5638;50.860;4.698;2023-01-19T11:43:26;13.27;;;7.17;;
8849;SDS011;5638;50.860;4.698;2023-01-19T11:45:55;11.50;;;7.57;;
8849;SDS011;5638;50.860;4.698;2023-01-19T11:48:28;13.63;;;7.10;;
8849;SDS011;5638;50.860;4.698;2023-01-19T11:51:20;13.80;;;7.00;;
8849;SDS011;5638;50.860;4.698;2023-01-19T11:53:50;12.57;;;6.97;;
8849;SDS011;5638;50.860;4.698;2023-01-19T11:56:17;11.90;;;7.13;;
8849;SDS011;5638;50.860;4.698;2023-01-19T11:58:49;14.60;;;7.17;;
8849;SDS011;5638;50.860;4.698;2023-01-19T12:01:18;10.27;;;5.73;;
8849;SDS011;5638;50.860;4.698;2023-01-19T12:06:36;14.03;;;7.37;;
8849;SDS011;5638;50.860;4.698;2023-01-19T12:11:35;11.63;;;6.40;;
8849;SDS011;5638;50.860;4.698;2023-01-19T12:14:10;14.50;;;7.97;;
8849;SDS011;5638;50.860;4.698;2023-01-19T12:16:48;13.27;;;7.33;;
8849;SDS011;5638;50.860;4.698;2023-01-19T12:19:22;14.07;;;7.83;;
8849;SDS011;5638;50.860;4.698;2023-01-19T12:21:59;14.97;;;7.77;;
8849;SDS011;5638;50.860;4.698;2023-01-19T12:24:34;14.60;;;8.00;;
8849;SDS011;5638;50.860;4.698;2023-01-19T12:27:15;12.60;;;7.40;;
8849;SDS011;5638;50.860;4.698;2023-01-19T12:30:01;20.33;;;7.90;;
8849;SDS011;5638;50.860;4.698;2023-01-19T12:32:32;14.30;;;7.13;;
8849;SDS011;5638;50.860;4.698;2023-01-19T12:35:01;19.30;;;8.10;;
8849;SDS011;5638;50.860;4.698;2023-01-19T12:42:55;14.43;;;7.30;;
8849;SDS011;5638;50.860;4.698;2023-01-19T12:45:29;13.20;;;7.67;;
8849;SDS011;5638;50.860;4.698;2023-01-19T12:47:58;14.67;;;7.23;;
8849;SDS011;5638;50.860;4.698;2023-01-19T12:50:26;17.13;;;7.70;;
8849;SDS011;5638;50.860;4.698;2023-01-19T12:53:01;12.27;;;6.80;;
8849;SDS011;5638;50.860;4.698;2023-01-19T12:55:40;13.60;;;7.37;;
8849;SDS011;5638;50.860;4.698;2023-01-19T12:58:19;12.63;;;6.87;;
8849;SDS011;5638;50.860;4.698;2023-01-19T13:00:49;13.80;;;6.23;;
8849;SDS011;5638;50.860;4.698;2023-01-19T13:14:46;12.73;;;6.73;;
8849;SDS011;5638;50.860;4.698;2023-01-19T13:19:51;11.93;;;6.87;;
8849;SDS011;5638;50.860;4.698;2023-01-19T13:22:53;14.53;;;7.10;;
8849;SDS011;5638;50.860;4.698;2023-01-19T13:25:51;13.20;;;6.83;;
8849;SDS011;5638;50.860;4.698;2023-01-19T13:28:36;11.73;;;6.77;;
8849;SDS011;5638;50.860;4.698;2023-01-19T13:31:07;13.80;;;7.77;;
8849;SDS011;5638;50.860;4.698;2023-01-19T13:33:36;11.10;;;5.70;;
8849;SDS011;5638;50.860;4.698;2023-01-19T13:36:30;9.17;;;5.50;;
8849;SDS011;5638;50.860;4.698;2023-01-19T13:39:05;12.70;;;6.23;;
8849;SDS011;5638;50.860;4.698;2023-01-19T13:41:48;12.07;;;6.07;;
8849;SDS011;5638;50.860;4.698;2023-01-19T13:44:20;9.20;;;5.97;;
8849;SDS011;5638;50.860;4.698;2023-01-19T13:47:01;12.77;;;5.80;;
8849;SDS011;5638;50.860;4.698;2023-01-19T13:49:35;11.70;;;6.10;;
8849;SDS011;5638;50.860;4.698;2023-01-19T13:52:10;9.73;;;5.70;;
8849;SDS011;5638;50.860;4.698;2023-01-19T13:57:26;10.83;;;5.93;;
8849;SDS011;5638;50.860;4.698;2023-01-19T14:00:15;11.37;;;6.40;;
8849;SDS011;5638;50.860;4.698;2023-01-19T14:02:58;9.60;;;5.93;;
8849;SDS011;5638;50.860;4.698;2023-01-19T14:05:34;13.07;;;6.57;;
8849;SDS011;5638;50.860;4.698;2023-01-19T14:10:46;9.63;;;6.20;;
8849;SDS011;5638;50.860;4.698;2023-01-19T14:16:36;9.60;;;6.13;;
8849;SDS011;5638;50.860;4.698;2023-01-19T14:18:42;8.97;;;5.87;;
8849;SDS011;5638;50.860;4.698;2023-01-19T14:21:12;8.13;;;5.47;;
8849;SDS011;5638;50.860;4.698;2023-01-19T14:29:28;11.37;;;5.47;;
8849;SDS011;5638;50.860;4.698;2023-01-19T14:39:49;11.60;;;7.07;;
8849;SDS011;5638;50.860;4.698;2023-01-19T14:45:26;10.03;;;6.10;;
8849;SDS011;5638;50.860;4.698;2023-01-19T14:48:18;11.70;;;5.93;;
8849;SDS011;5638;50.860;4.698;2023-01-19T14:50:46;10.63;;;6.20;;
8849;SDS011;5638;50.860;4.698;2023-01-19T14:53:16;11.93;;;6.60;;
8849;SDS011;5638;50.860;4.698;2023-01-19T14:55:50;12.87;;;6.70;;
8849;SDS011;5638;50.860;4.698;2023-01-19T14:58:25;12.20;;;6.63;;
8849;SDS011;5638;50.860;4.698;2023-01-19T15:00:56;11.27;;;6.70;;
8849;SDS011;5638;50.860;4.698;2023-01-19T15:03:22;11.67;;;6.53;;
8849;SDS011;5638;50.860;4.698;2023-01-19T15:05:51;12.03;;;6.83;;
8849;SDS011;5638;50.860;4.698;2023-01-19T15:10:57;10.23;;;6.27;;
8849;SDS011;5638;50.860;4.698;2023-01-19T15:13:34;12.33;;;6.97;;
8849;SDS011;5638;50.860;4.698;2023-01-19T15:16:01;14.40;;;6.83;;
8849;SDS011;5638;50.860;4.698;2023-01-19T15:18:27;12.67;;;6.43;;
8849;SDS011;5638;50.860;4.698;2023-01-19T15:20:54;10.70;;;6.17;;
8849;SDS011;5638;50.860;4.698;2023-01-19T15:23:27;12.07;;;6.70;;
8849;SDS011;5638;50.860;4.698;2023-01-19T15:25:58;11.27;;;6.47;;
8849;SDS011;5638;50.860;4.698;2023-01-19T15:28:26;13.40;;;7.40;;
8849;SDS011;5638;50.860;4.698;2023-01-19T15:30:53;13.27;;;7.03;;
8849;SDS011;5638;50.860;4.698;2023-01-19T15:33:20;14.47;;;7.50;;
8849;SDS011;5638;50.860;4.698;2023-01-19T15:35:49;11.37;;;6.77;;
8849;SDS011;5638;50.860;4.698;2023-01-19T15:38:16;14.57;;;8.00;;
8849;SDS011;5638;50.860;4.698;2023-01-19T15:40:42;16.67;;;7.53;;
8849;SDS011;5638;50.860;4.698;2023-01-19T15:43:09;11.90;;;7.13;;
8849;SDS011;5638;50.860;4.698;2023-01-19T15:45:36;13.70;;;7.37;;
8849;SDS011;5638;50.860;4.698;2023-01-19T15:48:08;12.93;;;7.57;;
8849;SDS011;5638;50.860;4.698;2023-01-19T15:50:39;11.33;;;7.27;;
8849;SDS011;5638;50.860;4.698;2023-01-19T15:53:15;11.43;;;7.73;;
8849;SDS011;5638;50.860;4.698;2023-01-19T15:55:47;14.13;;;7.17;;
8849;SDS011;5638;50.860;4.698;2023-01-19T15:58:16;12.40;;;7.23;;
8849;SDS011;5638;50.860;4.698;2023-01-19T16:00:44;12.63;;;7.57;;
8849;SDS011;5638;50.860;4.698;2023-01-19T16:03:18;10.27;;;6.73;;
8849;SDS011;5638;50.860;4.698;2023-01-19T16:05:44;10.47;;;7.00;;
8849;SDS011;5638;50.860;4.698;2023-01-19T16:08:11;13.23;;;7.30;;
8849;SDS011;5638;50.860;4.698;2023-01-19T16:10:38;13.07;;;6.67;;
8849;SDS011;5638;50.860;4.698;2023-01-19T16:13:08;13.90;;;7.57;;
8849;SDS011;5638;50.860;4.698;2023-01-19T16:15:35;11.43;;;7.73;;
8849;SDS011;5638;50.860;4.698;2023-01-19T16:18:03;13.13;;;7.80;;
8849;SDS011;5638;50.860;4.698;2023-01-19T16:20:29;13.43;;;8.27;;
8849;SDS011;5638;50.860;4.698;2023-01-19T16:22:56;11.20;;;7.53;;
8849;SDS011;5638;50.860;4.698;2023-01-19T16:25:22;10.50;;;6.80;;
8849;SDS011;5638;50.860;4.698;2023-01-19T16:27:48;13.13;;;8.30;;
8849;SDS011;5638;50.860;4.698;2023-01-19T16:30:14;14.37;;;7.83;;
8849;SDS011;5638;50.860;4.698;2023-01-19T16:32:43;13.07;;;8.03;;
8849;SDS011;5638;50.860;4.698;2023-01-19T16:35:10;15.63;;;8.10;;
8849;SDS011;5638;50.860;4.698;2023-01-19T16:37:37;13.87;;;7.70;;
8849;SDS011;5638;50.860;4.698;2023-01-19T16:40:04;12.73;;;7.70;;
8849;SDS011;5638;50.860;4.698;2023-01-19T16:42:30;12.37;;;7.77;;
8849;SDS011;5638;50.860;4.698;2023-01-19T16:44:56;15.67;;;8.27;;
8849;SDS011;5638;50.860;4.698;2023-01-19T16:47:22;11.30;;;7.80;;
8849;SDS011;5638;50.860;4.698;2023-01-19T16:49:48;12.23;;;8.17;;
8849;SDS011;5638;50.860;4.698;2023-01-19T16:52:14;17.03;;;8.77;;
8849;SDS011;5638;50.860;4.698;2023-01-19T16:54:41;16.13;;;8.60;;